createdAt,value
2022-11-07T05:17:38.934Z,3.42
2022-11-07T05:20:05.963Z,2.60
2022-11-07T05:22:56.006Z,2.25
2022-11-07T05:25:22.768Z,1.60
2022-11-07T05:27:49.143Z,1.80
2022-11-07T05:30:15.615Z,1.88
2022-11-07T05:32:42.280Z,1.42
2022-11-07T05:35:09.126Z,1.95
2022-11-07T05:37:35.545Z,2.53
2022-11-07T05:40:02.003Z,1.58
2022-11-07T05:42:28.471Z,1.90
2022-11-07T05:44:54.912Z,1.52
2022-11-07T05:47:21.332Z,1.85
2022-11-07T05:49:47.728Z,1.60
2022-11-07T05:52:14.305Z,1.60
2022-11-07T05:54:41.878Z,1.80
2022-11-07T05:57:09.409Z,1.60
2022-11-07T05:59:35.869Z,1.70
2022-11-07T06:02:03.551Z,1.40
2022-11-07T06:04:30.272Z,1.98
2022-11-07T06:06:56.875Z,1.52
2022-11-07T06:09:23.271Z,2.30
2022-11-07T06:11:49.741Z,1.65
2022-11-07T06:14:16.406Z,1.58
2022-11-07T06:16:42.880Z,1.60
2022-11-07T06:19:09.268Z,2.65
2022-11-07T06:21:35.732Z,2.10
2022-11-07T06:24:02.194Z,1.92
2022-11-07T06:26:29.566Z,1.77
2022-11-07T06:28:56.009Z,1.83
2022-11-07T06:31:22.508Z,1.35
2022-11-07T06:33:51.034Z,1.70
2022-11-07T06:36:18.018Z,1.20
2022-11-07T06:38:44.544Z,1.50
2022-11-07T06:41:14.984Z,1.77
2022-11-07T06:43:42.373Z,0.90
2022-11-07T06:46:12.672Z,1.25
2022-11-07T06:48:39.779Z,1.98
2022-11-07T06:51:07.597Z,1.52
2022-11-07T06:53:34.101Z,2.08
2022-11-07T06:56:01.431Z,1.20
2022-11-07T06:58:27.944Z,1.30
2022-11-07T07:00:58.489Z,1.45
2022-11-07T07:03:25.080Z,1.83
2022-11-07T07:05:51.726Z,1.35
2022-11-07T07:08:18.230Z,1.23
2022-11-07T07:10:45.870Z,1.10
2022-11-07T07:13:14.025Z,1.27
2022-11-07T07:15:51.308Z,1.50
2022-11-07T07:18:19.602Z,1.13
2022-11-07T07:20:47.117Z,1.17
2022-11-07T07:23:13.668Z,1.50
2022-11-07T07:25:40.172Z,1.20
2022-11-07T07:28:06.603Z,0.90
2022-11-07T07:30:33.522Z,1.15
2022-11-07T07:33:00.156Z,1.60
2022-11-07T07:35:26.724Z,2.08
2022-11-07T07:37:53.612Z,1.20
2022-11-07T07:40:20.379Z,1.25
2022-11-07T07:42:47.903Z,1.30
2022-11-07T07:45:15.887Z,1.17
2022-11-07T07:47:44.671Z,1.30
2022-11-07T07:50:12.879Z,1.10
2022-11-07T07:52:39.416Z,1.30
2022-11-07T07:55:11.376Z,1.05
2022-11-07T07:57:39.250Z,1.15
2022-11-07T08:00:06.321Z,0.88
2022-11-07T08:02:38.550Z,2.20
2022-11-07T08:05:05.480Z,1.17
2022-11-07T08:07:31.880Z,1.02
2022-11-07T08:10:02.115Z,0.55
2022-11-07T08:12:31.925Z,1.30
2022-11-07T08:14:58.326Z,1.25
2022-11-07T08:17:24.767Z,1.77
2022-11-07T08:19:51.294Z,1.00
2022-11-07T08:22:17.734Z,1.05
2022-11-07T08:24:46.243Z,0.95
2022-11-07T08:27:12.687Z,1.45
2022-11-07T08:29:39.114Z,1.20
2022-11-07T08:32:05.694Z,1.10
2022-11-07T08:34:32.214Z,0.77
2022-11-07T08:36:58.729Z,1.05
2022-11-07T08:39:25.250Z,1.80
2022-11-07T08:41:53.761Z,1.10
2022-11-07T08:44:21.398Z,1.02
2022-11-07T08:46:51.262Z,0.93
2022-11-07T08:49:17.810Z,1.30
2022-11-07T08:51:48.912Z,0.85
2022-11-07T08:54:15.684Z,0.80
2022-11-07T08:56:42.178Z,1.25
2022-11-07T08:59:09.851Z,1.00
2022-11-07T09:01:55.971Z,1.52
2022-11-07T09:04:23.141Z,1.77
2022-11-07T09:06:49.642Z,0.80
2022-11-07T09:09:18.503Z,1.33
2022-11-07T09:11:44.958Z,1.27
2022-11-07T09:14:11.394Z,0.93
2022-11-07T09:16:37.829Z,0.93
2022-11-07T09:19:04.286Z,1.40
2022-11-07T09:21:30.834Z,1.95
2022-11-07T09:23:57.268Z,1.10
2022-11-07T09:26:23.816Z,0.93
2022-11-07T09:28:53.118Z,2.00
2022-11-07T09:31:22.016Z,1.00
2022-11-07T09:33:48.577Z,1.10
2022-11-07T09:36:15.129Z,1.20
2022-11-07T09:38:41.624Z,0.95
2022-11-07T09:41:29.615Z,1.30
2022-11-07T09:44:08.288Z,0.90
2022-11-07T09:47:06.875Z,1.25
2022-11-07T09:49:44.539Z,0.75
2022-11-07T09:52:17.083Z,1.88
2022-11-07T09:54:50.593Z,1.42
2022-11-07T09:57:18.867Z,1.48
2022-11-07T09:59:51.465Z,1.10
2022-11-07T10:02:21.721Z,1.25
2022-11-07T10:04:55.666Z,1.35
2022-11-07T10:10:21.046Z,1.00
2022-11-07T10:12:57.710Z,1.08
2022-11-07T10:15:30.238Z,1.08
2022-11-07T10:18:23.893Z,0.98
2022-11-07T10:21:37.259Z,0.93
2022-11-07T10:24:27.871Z,0.90
2022-11-07T10:26:56.222Z,1.80
2022-11-07T10:29:27.151Z,0.70
2022-11-07T10:32:08.984Z,0.90
2022-11-07T10:34:41.809Z,1.08
2022-11-07T10:37:09.265Z,1.15
2022-11-07T10:39:35.718Z,1.52
2022-11-07T10:42:08.269Z,0.70
2022-11-07T10:44:35.424Z,0.60
2022-11-07T10:47:03.404Z,1.38
2022-11-07T10:49:31.804Z,0.95
2022-11-07T10:52:25.757Z,1.00
2022-11-07T10:54:52.398Z,0.88
2022-11-07T10:57:22.280Z,1.05
2022-11-07T10:59:51.810Z,0.93
2022-11-07T11:02:19.610Z,0.90
2022-11-07T11:04:55.745Z,1.50
2022-11-07T11:07:28.644Z,1.20
2022-11-07T11:09:57.684Z,1.10
2022-11-07T11:12:34.709Z,1.70
2022-11-07T11:15:14.066Z,1.52
2022-11-07T11:17:41.280Z,1.40
2022-11-07T11:20:28.728Z,1.30
2022-11-07T11:22:55.328Z,1.50
2022-11-07T11:25:23.815Z,1.63
2022-11-07T11:28:05.870Z,1.20
2022-11-07T11:30:35.821Z,0.90
2022-11-07T11:33:16.121Z,1.10
2022-11-07T11:36:22.996Z,1.25
2022-11-07T11:38:55.345Z,1.15
2022-11-07T11:41:36.643Z,1.20
2022-11-07T11:44:06.701Z,0.90
2022-11-07T11:46:57.626Z,1.50
2022-11-07T11:49:40.241Z,1.00
2022-11-07T11:52:16.754Z,1.00
2022-11-07T11:54:48.358Z,1.08
2022-11-07T11:57:23.043Z,0.70
2022-11-07T12:00:02.997Z,1.55
2022-11-07T12:02:46.812Z,1.20
2022-11-07T12:05:38.093Z,1.48
2022-11-07T12:08:14.194Z,1.20
2022-11-07T12:11:02.398Z,0.88
2022-11-07T12:13:51.357Z,1.02
2022-11-07T12:16:39.786Z,1.50
2022-11-07T12:19:29.585Z,1.40
2022-11-07T12:22:24.191Z,1.10
2022-11-07T12:25:00.110Z,1.17
2022-11-07T12:27:42.070Z,1.02
2022-11-07T12:30:09.077Z,1.40
2022-11-07T12:33:01.198Z,1.02
2022-11-07T12:35:36.804Z,0.82
2022-11-07T12:38:11.602Z,1.15
2022-11-07T12:41:17.399Z,1.75
2022-11-07T12:44:14.928Z,0.98
2022-11-07T12:46:47.603Z,0.82
2022-11-07T12:49:40.800Z,0.90
2022-11-07T12:52:30.105Z,1.25
2022-11-07T12:55:02.154Z,1.27
2022-11-07T12:57:34.253Z,1.13
2022-11-07T13:00:15.569Z,1.15
2022-11-07T13:03:30.429Z,0.85
2022-11-07T13:06:22.086Z,1.63
2022-11-07T13:08:58.670Z,0.98
2022-11-07T13:12:09.740Z,1.05
2022-11-07T13:14:41.909Z,1.33
2022-11-07T13:17:08.403Z,1.45
2022-11-07T13:19:37.158Z,1.17
2022-11-07T13:22:06.589Z,1.02
2022-11-07T13:24:51.206Z,1.33
2022-11-07T13:27:24.813Z,1.08
2022-11-07T13:29:51.935Z,0.88
2022-11-07T13:32:18.507Z,0.90
2022-11-07T13:34:47.795Z,1.40
2022-11-07T13:37:40.221Z,1.02
2022-11-07T13:40:25.288Z,0.63
2022-11-07T13:43:13.699Z,0.80
2022-11-07T13:45:40.163Z,0.70
2022-11-07T13:48:16.333Z,1.27
2022-11-07T13:50:50.267Z,0.73
2022-11-07T13:55:56.678Z,1.70
2022-11-07T13:58:25.225Z,0.95
2022-11-07T14:00:51.777Z,0.80
2022-11-07T14:03:28.219Z,0.88
2022-11-07T14:05:56.045Z,1.27
2022-11-07T14:11:23.115Z,1.17
2022-11-07T14:13:52.722Z,0.90
2022-11-07T14:16:23.248Z,0.88
2022-11-07T14:18:55.169Z,0.95
2022-11-07T14:21:28.525Z,1.58
2022-11-07T14:23:55.652Z,1.85
2022-11-07T14:26:32.938Z,1.13
2022-11-07T14:29:03.669Z,1.20
2022-11-07T14:31:34.029Z,1.00
2022-11-07T14:34:21.133Z,1.10
2022-11-07T14:36:48.707Z,1.20
2022-11-07T14:39:16.078Z,1.00
2022-11-07T14:41:44.601Z,1.98
2022-11-07T14:44:19.190Z,1.00
2022-11-07T14:46:48.673Z,1.15
2022-11-07T14:49:28.794Z,1.50
2022-11-07T14:51:56.363Z,0.80
2022-11-07T14:54:31.644Z,2.55
2022-11-07T14:56:59.256Z,1.10
2022-11-07T14:59:27.272Z,0.90
2022-11-07T15:01:57.644Z,1.30
2022-11-07T15:04:35.544Z,1.13
2022-11-07T15:07:26.294Z,1.50
2022-11-07T15:09:55.103Z,1.02
2022-11-07T15:12:27.025Z,1.90
2022-11-07T15:15:19.042Z,1.02
2022-11-07T15:17:52.458Z,1.08
2022-11-07T15:20:38.299Z,1.15
2022-11-07T15:23:27.164Z,0.68
2022-11-07T15:26:06.595Z,0.70
2022-11-07T15:28:42.171Z,0.70
2022-11-07T15:31:25.566Z,1.00
2022-11-07T15:33:54.542Z,1.27
2022-11-07T15:36:21.078Z,2.53
2022-11-07T15:38:49.095Z,1.42
2022-11-07T15:41:15.761Z,1.30
2022-11-07T15:43:42.359Z,0.82
2022-11-07T15:46:40.040Z,0.93
2022-11-07T15:49:07.581Z,1.10
2022-11-07T15:51:35.207Z,1.10
2022-11-07T15:54:02.727Z,1.35
2022-11-07T15:56:30.353Z,2.10
2022-11-07T15:58:59.495Z,1.55
2022-11-07T16:01:27.169Z,2.13
2022-11-07T16:03:57.093Z,1.70
2022-11-07T16:06:28.273Z,1.42
2022-11-07T16:08:56.468Z,0.98
2022-11-07T16:11:24.175Z,1.38
2022-11-07T16:13:59.273Z,1.13
2022-11-07T16:16:35.626Z,1.15
2022-11-07T16:19:03.423Z,1.08
2022-11-07T16:21:30.926Z,0.85
2022-11-07T16:23:57.766Z,1.38
2022-11-07T16:26:29.583Z,1.48
2022-11-07T16:28:56.156Z,1.13
2022-11-07T16:31:23.771Z,1.15
2022-11-07T16:33:53.582Z,1.08
2022-11-07T16:36:24.235Z,1.27
2022-11-07T16:38:51.351Z,1.98
2022-11-07T16:41:18.201Z,1.15
2022-11-07T16:43:46.334Z,1.15
2022-11-07T16:46:19.961Z,1.10
2022-11-07T16:48:52.911Z,1.27
2022-11-07T16:51:21.217Z,1.30
2022-11-07T16:53:48.490Z,1.52
2022-11-07T16:56:31.074Z,1.27
2022-11-07T16:58:58.312Z,0.95
2022-11-07T17:01:26.839Z,0.98
2022-11-07T17:03:56.381Z,1.02
2022-11-07T17:06:34.650Z,0.90
2022-11-07T17:09:08.938Z,1.13
2022-11-07T17:11:37.670Z,1.83
2022-11-07T17:14:04.325Z,1.42
2022-11-07T17:16:34.834Z,1.35
2022-11-07T17:19:01.796Z,1.50
2022-11-07T17:21:37.607Z,0.80
2022-11-07T17:24:04.857Z,1.42
2022-11-07T17:26:35.079Z,1.33
2022-11-07T17:29:04.788Z,1.25
2022-11-07T17:31:37.320Z,1.45
2022-11-07T17:34:03.930Z,1.15
2022-11-07T17:36:37.171Z,1.60
2022-11-07T17:39:11.667Z,1.35
2022-11-07T17:41:43.579Z,1.02
2022-11-07T17:44:11.090Z,1.45
2022-11-07T17:46:42.035Z,1.50
2022-11-07T17:49:14.852Z,1.27
2022-11-07T17:51:42.128Z,0.95
2022-11-07T17:54:16.759Z,1.25
2022-11-07T17:56:46.686Z,0.98
2022-11-07T17:59:26.781Z,0.88
2022-11-07T18:01:57.518Z,1.17
2022-11-07T18:04:38.955Z,0.82
2022-11-07T18:07:14.617Z,1.33
2022-11-07T18:09:41.661Z,0.90
2022-11-07T18:12:09.618Z,2.00
2022-11-07T18:17:23.064Z,9.20
2022-11-07T18:19:49.787Z,4.90
2022-11-07T18:22:17.595Z,7.00
2022-11-07T18:24:46.502Z,4.90
2022-11-07T18:27:16.322Z,7.68
2022-11-07T18:29:43.036Z,7.38
2022-11-07T18:32:09.660Z,4.00
2022-11-07T18:34:36.181Z,2.78
2022-11-07T18:37:02.601Z,2.95
2022-11-07T18:39:29.106Z,3.35
2022-11-07T18:41:55.700Z,2.42
2022-11-07T18:44:22.548Z,1.48
2022-11-07T18:46:49.067Z,2.25
2022-11-07T18:49:19.738Z,4.68
2022-11-07T18:51:46.425Z,2.55
2022-11-07T18:54:13.917Z,1.52
2022-11-07T18:56:41.317Z,2.03
2022-11-07T18:59:07.866Z,1.20
2022-11-07T19:01:37.641Z,2.80
2022-11-07T19:04:05.926Z,4.18
2022-11-07T19:06:36.372Z,3.15
2022-11-07T19:09:03.700Z,2.97
2022-11-07T19:11:37.281Z,2.33
2022-11-07T19:14:03.860Z,2.83
2022-11-07T19:16:30.751Z,2.38
2022-11-07T19:18:59.594Z,2.47
2022-11-07T19:21:26.386Z,2.28
2022-11-07T19:23:52.926Z,2.22
2022-11-07T19:26:19.846Z,1.75
2022-11-07T19:28:47.007Z,1.58
2022-11-07T19:31:14.188Z,1.67
2022-11-07T19:33:41.559Z,2.78
2022-11-07T19:36:14.126Z,1.75
2022-11-07T19:38:40.846Z,2.42
2022-11-07T19:41:11.631Z,4.10
2022-11-07T19:43:42.408Z,3.57
2022-11-07T19:46:14.839Z,4.15
2022-11-07T19:48:41.549Z,3.70
2022-11-07T19:51:09.918Z,6.38
2022-11-07T19:53:36.380Z,6.82
2022-11-07T19:56:08.599Z,3.60
2022-11-07T19:58:36.691Z,1.73
2022-11-07T20:01:12.949Z,1.65
2022-11-07T20:03:39.569Z,2.08
2022-11-07T20:06:10.305Z,2.33
2022-11-07T20:08:37.151Z,1.55
2022-11-07T20:11:03.864Z,1.90
2022-11-07T20:13:30.395Z,2.10
2022-11-07T20:15:57.841Z,1.67
2022-11-07T20:18:24.689Z,2.80
2022-11-07T20:20:51.189Z,2.30
2022-11-07T20:23:17.810Z,1.63
2022-11-07T20:25:44.512Z,2.00
2022-11-07T20:28:10.919Z,1.60
2022-11-07T20:30:41.123Z,2.90
2022-11-07T20:33:10.588Z,1.75
2022-11-07T20:35:37.195Z,1.45
2022-11-07T20:38:05.789Z,1.65
2022-11-07T20:40:32.526Z,1.40
2022-11-07T20:43:01.646Z,1.10
2022-11-07T20:45:28.396Z,1.40
2022-11-07T20:47:54.901Z,1.60
2022-11-07T20:50:21.366Z,1.63
2022-11-07T20:52:47.804Z,2.00
2022-11-07T20:55:14.294Z,1.88
2022-11-07T20:57:41.017Z,1.75
2022-11-07T21:00:08.181Z,2.45
2022-11-07T21:02:34.682Z,2.45
2022-11-07T21:05:20.257Z,1.40
2022-11-07T21:07:48.277Z,2.35
2022-11-07T21:10:14.883Z,2.38
2022-11-07T21:12:42.762Z,2.13
2022-11-07T21:15:10.147Z,1.40
2022-11-07T21:17:37.231Z,2.15
2022-11-07T21:20:05.315Z,3.05
2022-11-07T21:22:31.828Z,5.20
2022-11-07T21:24:58.535Z,4.80
2022-11-07T21:27:24.962Z,2.90
2022-11-07T21:29:51.432Z,2.53
2022-11-07T21:32:17.864Z,2.10
2022-11-07T21:34:46.200Z,2.05
2022-11-07T21:37:12.645Z,2.10
2022-11-07T21:39:39.112Z,3.00
2022-11-07T21:42:05.691Z,2.42
2022-11-07T21:44:32.336Z,2.33
2022-11-07T21:46:58.883Z,2.42
2022-11-07T21:49:25.287Z,1.65
2022-11-07T21:51:51.838Z,2.25
2022-11-07T21:54:18.356Z,2.50
2022-11-07T21:56:44.815Z,2.50
2022-11-07T21:59:12.171Z,2.40
2022-11-07T22:01:39.748Z,3.10
2022-11-07T22:04:09.997Z,2.75
2022-11-07T22:06:39.504Z,2.35
2022-11-07T22:09:07.273Z,2.42
2022-11-07T22:11:33.719Z,3.80
2022-11-07T22:14:00.248Z,2.50
2022-11-07T22:16:27.045Z,2.78
2022-11-07T22:18:53.512Z,3.45
2022-11-07T22:21:22.871Z,5.00
2022-11-07T22:23:50.841Z,3.33
2022-11-07T22:26:22.769Z,3.38
2022-11-07T22:28:49.486Z,2.85
2022-11-07T22:31:22.845Z,2.47
2022-11-07T22:33:50.341Z,2.65
2022-11-07T22:36:17.809Z,2.92
2022-11-07T22:38:44.566Z,3.13
2022-11-07T22:41:14.766Z,3.42
2022-11-07T22:43:41.477Z,4.63
2022-11-07T22:46:13.744Z,3.50
2022-11-07T22:48:41.247Z,3.97
2022-11-07T22:51:46.963Z,4.60
2022-11-07T22:54:13.816Z,5.03
2022-11-07T22:56:40.846Z,3.97
2022-11-07T22:59:07.509Z,4.55
